Time;durP1;ratioP1;P1;durP2;ratioP2;P2;SDS_P1;SDS_P2;PMS_P1;PMS_P2;Temp;Humidity;BMP_temperature;BMP_pressure;BME280_temperature;BME280_humidity;BME280_pressure;Samples;Min_cycle;Max_cycle;Signal;HPM_P1;HPM_P2
2021/04/03 00:00:57;;;;;;;40.15;18.50;;;;;;;;;;4994982;28;20023;-71
2021/04/03 00:03:24;;;;;;;33.60;17.40;;;;;;;;;;4977335;28;20042;-73
2021/04/03 00:05:51;;;;;;;34.58;17.15;;;;;;;;;;4995231;28;20105;-73
2021/04/03 00:08:17;;;;;;;36.65;17.95;;;;;;;;;;4994830;28;20054;-73
2021/04/03 00:10:43;;;;;;;33.58;17.83;;;;;;;;;;4994753;28;20031;-63
2021/04/03 00:13:09;;;;;;;36.72;17.83;;;;;;;;;;4994842;28;20077;-68
2021/04/03 00:15:35;;;;;;;35.25;18.02;;;;;;;;;;4994355;28;20104;-73
2021/04/03 00:18:01;;;;;;;34.58;18.83;;;;;;;;;;4994949;28;20034;-65
2021/04/03 00:20:30;;;;;;;34.25;18.70;;;;;;;;;;4994684;28;20130;-72
2021/04/03 00:22:56;;;;;;;39.58;18.52;;;;;;;;;;4994815;28;20623;-71
2021/04/03 00:25:22;;;;;;;36.20;18.23;;;;;;;;;;4994473;28;20062;-67
2021/04/03 00:27:48;;;;;;;33.42;17.48;;;;;;;;;;4994837;28;20037;-68
2021/04/03 00:30:15;;;;;;;30.80;15.35;;;;;;;;;;4994567;28;20177;-71
2021/04/03 00:32:44;;;;;;;27.25;15.05;;;;;;;;;;4977005;28;20478;-73
2021/04/03 00:35:12;;;;;;;30.02;15.27;;;;;;;;;;4994555;28;20030;-72
2021/04/03 00:37:38;;;;;;;28.77;15.88;;;;;;;;;;4994594;28;20082;-71
2021/04/03 00:40:07;;;;;;;31.48;15.77;;;;;;;;;;4994632;28;20022;-71
2021/04/03 00:42:33;;;;;;;29.90;15.07;;;;;;;;;;4994266;28;20567;-71
2021/04/03 00:44:59;;;;;;;26.73;14.95;;;;;;;;;;4994348;28;20370;-72
2021/04/03 00:47:25;;;;;;;28.35;15.32;;;;;;;;;;4976773;28;20394;-72
2021/04/03 00:49:51;;;;;;;33.05;16.77;;;;;;;;;;4994243;28;20041;-72
2021/04/03 00:52:17;;;;;;;28.80;15.52;;;;;;;;;;4994316;28;20026;-72
2021/04/03 00:54:43;;;;;;;31.75;16.40;;;;;;;;;;4994061;28;20053;-65
2021/04/03 00:57:09;;;;;;;30.58;15.65;;;;;;;;;;4994167;28;20385;-71
2021/04/03 00:59:36;;;;;;;30.88;17.13;;;;;;;;;;4993686;28;20034;-72
2021/04/03 01:02:02;;;;;;;29.63;17.17;;;;;;;;;;4994015;28;20029;-71
2021/04/03 01:04:28;;;;;;;32.33;16.77;;;;;;;;;;4993455;28;20026;-71
2021/04/03 01:06:55;;;;;;;34.30;17.88;;;;;;;;;;4993755;28;20453;-70
2021/04/03 01:09:21;;;;;;;35.47;18.95;;;;;;;;;;4993739;28;20030;-73
2021/04/03 01:11:58;;;;;;;31.95;19.02;;;;;;;;;;4995123;28;20089;-71
2021/04/03 01:14:33;;;;;;;29.42;16.45;;;;;;;;;;4995992;28;20429;-61
2021/04/03 01:17:17;;;;;;;34.47;17.80;;;;;;;;;;4993966;28;20030;-72
2021/04/03 01:19:46;;;;;;;31.55;18.58;;;;;;;;;;4993642;28;20042;-69
2021/04/03 01:22:22;;;;;;;33.17;17.75;;;;;;;;;;4993673;28;20443;-72
2021/04/03 01:25:08;;;;;;;32.70;19.00;;;;;;;;;;4993303;28;20080;-70
2021/04/03 01:27:37;;;;;;;30.58;18.60;;;;;;;;;;4993695;28;20030;-66
2021/04/03 01:30:15;;;;;;;30.00;18.58;;;;;;;;;;4993365;28;20434;-69
2021/04/03 01:32:47;;;;;;;31.08;19.13;;;;;;;;;;4993232;28;20534;-71
2021/04/03 01:35:15;;;;;;;33.28;19.55;;;;;;;;;;4993558;28;20066;-72
2021/04/03 01:38:02;;;;;;;35.40;19.48;;;;;;;;;;4993558;28;20030;-72
2021/04/03 01:40:28;;;;;;;29.08;17.48;;;;;;;;;;4993256;28;20089;-72
2021/04/03 01:42:59;;;;;;;29.02;17.27;;;;;;;;;;4993121;28;20027;-73
2021/04/03 01:45:25;;;;;;;27.50;17.35;;;;;;;;;;4993388;28;20054;-73
2021/04/03 01:47:52;;;;;;;28.33;16.85;;;;;;;;;;4993178;28;20022;-73
2021/04/03 01:50:19;;;;;;;25.20;16.20;;;;;;;;;;4993188;28;20046;-72
2021/04/03 01:52:46;;;;;;;28.50;17.30;;;;;;;;;;4993227;28;20026;-72
2021/04/03 01:55:13;;;;;;;26.83;17.60;;;;;;;;;;4992904;28;20039;-71
2021/04/03 01:57:40;;;;;;;30.63;17.80;;;;;;;;;;4993237;28;20053;-71
2021/04/03 02:00:10;;;;;;;33.10;18.45;;;;;;;;;;4992991;28;20081;-72
2021/04/03 02:02:38;;;;;;;30.30;18.50;;;;;;;;;;4992525;28;20462;-71
2021/04/03 02:05:05;;;;;;;28.13;17.02;;;;;;;;;;4992765;28;20414;-71
2021/04/03 02:07:31;;;;;;;29.23;18.38;;;;;;;;;;4992679;28;20030;-71
2021/04/03 02:09:57;;;;;;;31.17;18.60;;;;;;;;;;4992436;28;20066;-62
2021/04/03 02:12:24;;;;;;;29.45;18.83;;;;;;;;;;4992625;28;20051;-71
2021/04/03 02:14:51;;;;;;;33.33;18.88;;;;;;;;;;4992757;28;20065;-71
2021/04/03 02:17:19;;;;;;;29.42;18.17;;;;;;;;;;4991873;28;20057;-71
2021/04/03 02:19:45;;;;;;;30.23;18.42;;;;;;;;;;4992570;28;20472;-70
2021/04/03 02:22:12;;;;;;;27.08;17.45;;;;;;;;;;4992599;28;20031;-71
2021/04/03 02:24:38;;;;;;;33.50;19.52;;;;;;;;;;4991907;28;20093;-74
2021/04/03 02:27:05;;;;;;;28.42;17.77;;;;;;;;;;4992455;28;20042;-71
2021/04/03 02:29:32;;;;;;;32.00;18.45;;;;;;;;;;4992252;28;20038;-71
2021/04/03 02:31:58;;;;;;;30.50;19.13;;;;;;;;;;4992303;28;20506;-71
2021/04/03 02:34:24;;;;;;;30.38;17.60;;;;;;;;;;4992108;28;20060;-64
2021/04/03 02:36:50;;;;;;;28.38;17.73;;;;;;;;;;4992195;28;20022;-72
2021/04/03 02:39:16;;;;;;;27.65;17.60;;;;;;;;;;4992370;28;20138;-62
2021/04/03 02:41:47;;;;;;;28.63;18.38;;;;;;;;;;4992298;28;20501;-72
2021/04/03 02:44:28;;;;;;;30.13;18.97;;;;;;;;;;4992216;28;20030;-71
2021/04/03 02:47:12;;;;;;;31.40;19.02;;;;;;;;;;4992327;28;20018;-66
2021/04/03 02:49:40;;;;;;;29.00;18.55;;;;;;;;;;4991879;28;20093;-70
2021/04/03 02:52:07;;;;;;;32.95;19.23;;;;;;;;;;4992055;28;20488;-72
2021/04/03 02:54:35;;;;;;;30.30;18.58;;;;;;;;;;4991622;28;20418;-70
2021/04/03 02:57:02;;;;;;;29.48;18.30;;;;;;;;;;4992127;28;20034;-73
2021/04/03 02:59:29;;;;;;;30.73;18.52;;;;;;;;;;4991899;28;20050;-72
2021/04/03 03:01:56;;;;;;;29.38;18.58;;;;;;;;;;4991876;28;20462;-72
2021/04/03 03:04:23;;;;;;;29.27;18.55;;;;;;;;;;4991789;28;20019;-73
2021/04/03 03:06:49;;;;;;;33.42;20.38;;;;;;;;;;4991686;28;20542;-69
2021/04/03 03:09:17;;;;;;;32.60;19.17;;;;;;;;;;4991674;28;20486;-71
2021/04/03 03:11:45;;;;;;;29.90;18.02;;;;;;;;;;4991689;28;20517;-71
2021/04/03 03:14:13;;;;;;;28.75;17.55;;;;;;;;;;4991792;28;20018;-70
2021/04/03 03:16:40;;;;;;;28.83;18.98;;;;;;;;;;4991957;28;20367;-72
2021/04/03 03:19:07;;;;;;;28.17;17.67;;;;;;;;;;4991741;28;20029;-72
2021/04/03 03:21:33;;;;;;;31.58;18.88;;;;;;;;;;4991643;28;20125;-72
2021/04/03 03:23:59;;;;;;;31.67;18.73;;;;;;;;;;4991647;28;20033;-72
2021/04/03 03:26:25;;;;;;;30.77;18.25;;;;;;;;;;4991344;28;20130;-65
2021/04/03 03:28:54;;;;;;;30.33;19.08;;;;;;;;;;4995459;28;20065;-73
2021/04/03 03:31:20;;;;;;;30.08;18.55;;;;;;;;;;4995897;28;20478;-72
2021/04/03 03:33:46;;;;;;;32.28;19.15;;;;;;;;;;4995076;28;20057;-72
2021/04/03 03:36:12;;;;;;;32.95;19.05;;;;;;;;;;4995514;28;20026;-72
2021/04/03 03:38:39;;;;;;;31.08;19.00;;;;;;;;;;4995607;28;20120;-74
2021/04/03 03:41:06;;;;;;;30.33;19.60;;;;;;;;;;4995202;28;20133;-70
2021/04/03 03:43:33;;;;;;;33.38;20.13;;;;;;;;;;4995507;28;20417;-72
2021/04/03 03:45:59;;;;;;;32.85;18.77;;;;;;;;;;4995493;28;20113;-72
2021/04/03 03:48:25;;;;;;;33.30;19.15;;;;;;;;;;4995304;28;20022;-62
2021/04/03 03:50:51;;;;;;;27.85;18.35;;;;;;;;;;4995329;28;20109;-72
2021/04/03 03:53:17;;;;;;;32.67;19.75;;;;;;;;;;4995434;28;20019;-73
2021/04/03 03:55:43;;;;;;;33.13;20.40;;;;;;;;;;4994996;28;20145;-69
2021/04/03 03:58:09;;;;;;;36.88;21.30;;;;;;;;;;4995094;28;20022;-72
2021/04/03 04:00:35;;;;;;;35.45;19.67;;;;;;;;;;4995140;28;20037;-72
2021/04/03 04:03:01;;;;;;;32.03;20.20;;;;;;;;;;4995159;28;20041;-71
2021/04/03 04:05:27;;;;;;;35.38;21.10;;;;;;;;;;4995067;28;20033;-70
2021/04/03 04:07:53;;;;;;;37.13;21.48;;;;;;;;;;4977453;28;20081;-67
2021/04/03 04:10:19;;;;;;;35.65;20.80;;;;;;;;;;4994891;28;20117;-67
2021/04/03 04:12:45;;;;;;;36.42;20.80;;;;;;;;;;4995029;28;20474;-72
2021/04/03 04:15:12;;;;;;;33.20;20.73;;;;;;;;;;4994941;28;20449;-63
2021/04/03 04:17:38;;;;;;;32.72;20.25;;;;;;;;;;4977411;28;20018;-72
2021/04/03 04:20:04;;;;;;;34.05;21.02;;;;;;;;;;4994389;28;20064;-72
2021/04/03 04:22:30;;;;;;;33.28;20.27;;;;;;;;;;4994573;28;20494;-70
2021/04/03 04:24:57;;;;;;;35.20;21.10;;;;;;;;;;4994267;28;20047;-69
2021/04/03 04:27:23;;;;;;;34.25;20.27;;;;;;;;;;4994380;28;20030;-72
2021/04/03 04:29:49;;;;;;;38.42;20.88;;;;;;;;;;4994539;28;20080;-71
2021/04/03 04:32:16;;;;;;;34.97;20.67;;;;;;;;;;4994782;28;20085;-70
2021/04/03 04:34:42;;;;;;;40.58;21.10;;;;;;;;;;4994466;28;20019;-72
2021/04/03 04:37:08;;;;;;;32.55;20.40;;;;;;;;;;4994490;28;20034;-72
2021/04/03 04:39:34;;;;;;;29.10;17.55;;;;;;;;;;4993517;28;20080;-67
2021/04/03 04:42:00;;;;;;;36.78;20.27;;;;;;;;;;4994199;28;20061;-72
2021/04/03 04:44:26;;;;;;;32.10;18.48;;;;;;;;;;4994462;28;20030;-71
2021/04/03 04:46:52;;;;;;;33.58;19.13;;;;;;;;;;4994175;28;20030;-70
2021/04/03 04:49:18;;;;;;;29.52;18.13;;;;;;;;;;4994225;28;20038;-62
2021/04/03 04:51:44;;;;;;;30.17;18.08;;;;;;;;;;4994113;28;20101;-66
2021/04/03 04:54:10;;;;;;;32.05;18.33;;;;;;;;;;4994039;28;20026;-67
2021/04/03 04:56:36;;;;;;;34.92;19.13;;;;;;;;;;4994306;28;20065;-72
2021/04/03 04:59:02;;;;;;;32.20;18.88;;;;;;;;;;4993790;28;20034;-68
2021/04/03 05:01:28;;;;;;;28.23;17.63;;;;;;;;;;4994018;28;20038;-63
2021/04/03 05:03:54;;;;;;;27.63;16.50;;;;;;;;;;4993748;28;20496;-70
2021/04/03 05:06:20;;;;;;;26.50;16.00;;;;;;;;;;4994007;28;20474;-68
2021/04/03 05:08:47;;;;;;;29.23;16.98;;;;;;;;;;4993646;28;20029;-65
2021/04/03 05:11:13;;;;;;;33.13;17.65;;;;;;;;;;4993868;28;20047;-71
2021/04/03 05:13:39;;;;;;;30.85;18.05;;;;;;;;;;4993695;28;20026;-67
2021/04/03 05:16:05;;;;;;;29.45;17.17;;;;;;;;;;4994033;28;20038;-70
2021/04/03 05:18:31;;;;;;;31.73;18.33;;;;;;;;;;4993897;28;20097;-68
2021/04/03 05:20:57;;;;;;;33.50;18.17;;;;;;;;;;4993452;28;20402;-64
2021/04/03 05:23:23;;;;;;;29.48;17.50;;;;;;;;;;4993955;28;20109;-68
2021/04/03 05:25:49;;;;;;;33.72;19.60;;;;;;;;;;4993434;28;20062;-69
2021/04/03 05:28:15;;;;;;;37.33;21.00;;;;;;;;;;4993463;28;20065;-69
2021/04/03 05:30:42;;;;;;;30.98;18.65;;;;;;;;;;4993437;28;20038;-60
2021/04/03 05:33:09;;;;;;;31.17;17.48;;;;;;;;;;4993259;28;20050;-63
2021/04/03 05:35:35;;;;;;;34.65;19.42;;;;;;;;;;4993599;28;20109;-70
2021/04/03 05:38:01;;;;;;;32.63;18.38;;;;;;;;;;4975895;28;20101;-70
2021/04/03 05:40:27;;;;;;;33.17;19.05;;;;;;;;;;4993287;28;20027;-69
2021/04/03 05:42:53;;;;;;;35.20;19.02;;;;;;;;;;4993159;28;20062;-69
2021/04/03 05:45:19;;;;;;;34.08;19.35;;;;;;;;;;4993241;28;20092;-70
2021/04/03 05:47:46;;;;;;;36.53;19.35;;;;;;;;;;4993081;28;20065;-69
2021/04/03 05:50:12;;;;;;;35.45;20.15;;;;;;;;;;4992913;28;20038;-70
2021/04/03 05:52:40;;;;;;;35.83;21.65;;;;;;;;;;4992892;28;20034;-66
2021/04/03 05:55:07;;;;;;;33.00;19.52;;;;;;;;;;4992738;28;20038;-69
2021/04/03 05:57:33;;;;;;;34.10;19.58;;;;;;;;;;4975426;28;20027;-68
2021/04/03 05:59:59;;;;;;;32.47;18.52;;;;;;;;;;4992784;28;20050;-67
2021/04/03 06:02:25;;;;;;;37.97;19.17;;;;;;;;;;4992591;28;20478;-70
2021/04/03 06:04:52;;;;;;;28.67;17.33;;;;;;;;;;4992633;28;20437;-67
2021/04/03 06:07:19;;;;;;;27.10;16.55;;;;;;;;;;4991442;28;20018;-75
2021/04/03 06:09:45;;;;;;;28.63;16.42;;;;;;;;;;4991395;28;20185;-60
2021/04/03 06:12:11;;;;;;;26.85;15.80;;;;;;;;;;4991344;28;20382;-60
2021/04/03 06:14:37;;;;;;;27.52;16.02;;;;;;;;;;4991305;28;20030;-72
2021/04/03 06:17:04;;;;;;;24.45;14.40;;;;;;;;;;4993404;28;20369;-70
2021/04/03 06:19:31;;;;;;;21.80;13.63;;;;;;;;;;5011850;28;20065;-68
2021/04/03 06:22:00;;;;;;;23.88;14.68;;;;;;;;;;5011877;28;20050;-71
2021/04/03 06:24:27;;;;;;;26.15;15.23;;;;;;;;;;4998203;28;20105;-71
2021/04/03 06:26:53;;;;;;;28.00;16.05;;;;;;;;;;5000001;28;20443;-69
2021/04/03 06:29:27;;;;;;;27.05;15.52;;;;;;;;;;4991888;28;20084;-67
2021/04/03 06:31:54;;;;;;;27.35;16.38;;;;;;;;;;4997458;28;20490;-71
2021/04/03 06:34:29;;;;;;;31.25;16.98;;;;;;;;;;4992198;28;20022;-67
2021/04/03 06:36:55;;;;;;;28.73;16.98;;;;;;;;;;4990581;28;20031;-71
2021/04/03 06:39:22;;;;;;;29.33;16.45;;;;;;;;;;4991569;28;20029;-69
2021/04/03 06:41:48;;;;;;;28.77;16.98;;;;;;;;;;4991580;28;20725;-70
2021/04/03 06:46:36;;;;;;;26.98;17.00;;;;;;;;;;5068111;28;20770;-64
2021/04/03 06:49:03;;;;;;;28.92;17.05;;;;;;;;;;5065812;28;20029;-70
2021/04/03 06:51:30;;;;;;;26.98;16.55;;;;;;;;;;5055041;28;20033;-70
2021/04/03 06:53:57;;;;;;;27.15;16.35;;;;;;;;;;5064608;28;20111;-70
2021/04/03 06:56:24;;;;;;;31.20;17.90;;;;;;;;;;5067218;28;20048;-66
2021/04/03 06:59:09;;;;;;;27.17;15.90;;;;;;;;;;5064183;28;20372;-69
2021/04/03 07:01:55;;;;;;;29.92;16.25;;;;;;;;;;5064132;28;20040;-72
2021/04/03 07:04:28;;;;;;;25.98;15.30;;;;;;;;;;5064987;28;20078;-67
2021/04/03 07:06:54;;;;;;;29.17;14.68;;;;;;;;;;5067178;28;20028;-72
2021/04/03 07:09:21;;;;;;;27.33;14.57;;;;;;;;;;5066943;28;20033;-72
2021/04/03 07:11:48;;;;;;;26.35;14.80;;;;;;;;;;5067583;28;20384;-71
2021/04/03 07:14:15;;;;;;;25.88;14.25;;;;;;;;;;5066533;28;20516;-71
2021/04/03 07:16:41;;;;;;;23.60;13.82;;;;;;;;;;5066245;28;20032;-69
2021/04/03 07:19:10;;;;;;;26.05;15.85;;;;;;;;;;5065900;28;20017;-68
2021/04/03 07:21:36;;;;;;;30.25;16.85;;;;;;;;;;5066426;28;20376;-71
2021/04/03 07:24:03;;;;;;;25.08;15.38;;;;;;;;;;5059921;28;20017;-72
2021/04/03 07:26:29;;;;;;;31.20;18.45;;;;;;;;;;5042396;28;20045;-67
2021/04/03 07:28:55;;;;;;;31.40;18.50;;;;;;;;;;5044381;28;20040;-69
2021/04/03 07:31:46;;;;;;;28.10;17.05;;;;;;;;;;5046741;28;20029;-67
2021/04/03 07:34:12;;;;;;;27.88;16.73;;;;;;;;;;5041460;28;20037;-70
2021/04/03 07:36:40;;;;;;;27.55;17.33;;;;;;;;;;5044105;28;20040;-68
2021/04/03 07:39:26;;;;;;;26.40;17.35;;;;;;;;;;5044086;28;20068;-68
2021/04/03 07:41:52;;;;;;;25.98;16.45;;;;;;;;;;5043843;28;20022;-67
2021/04/03 07:44:18;;;;;;;27.80;16.90;;;;;;;;;;5043058;28;20029;-65
2021/04/03 07:46:47;;;;;;;25.80;15.88;;;;;;;;;;5044516;28;20033;-69
2021/04/03 07:49:32;;;;;;;28.38;17.98;;;;;;;;;;5044314;28;20029;-65
2021/04/03 07:51:58;;;;;;;25.02;16.23;;;;;;;;;;5043343;28;20037;-65
2021/04/03 07:54:26;;;;;;;26.48;16.15;;;;;;;;;;5026213;28;20025;-64
2021/04/03 07:56:53;;;;;;;30.00;17.15;;;;;;;;;;5036654;28;20029;-68
2021/04/03 07:59:39;;;;;;;25.13;15.68;;;;;;;;;;5030229;28;20045;-69
2021/04/03 08:02:05;;;;;;;24.77;15.48;;;;;;;;;;5030382;28;20044;-61
2021/04/03 08:04:31;;;;;;;25.77;15.68;;;;;;;;;;5029874;28;20129;-65
2021/04/03 08:07:01;;;;;;;25.50;16.33;;;;;;;;;;5013758;28;20052;-66
2021/04/03 08:09:31;;;;;;;25.75;16.60;;;;;;;;;;5029689;28;20025;-68
2021/04/03 08:11:57;;;;;;;28.92;16.65;;;;;;;;;;5032493;28;20036;-69
2021/04/03 08:14:26;;;;;;;29.25;17.92;;;;;;;;;;5032447;28;20936;-68
2021/04/03 08:16:53;;;;;;;29.45;18.58;;;;;;;;;;5032582;28;20010;-69
2021/04/03 08:19:23;;;;;;;29.17;18.05;;;;;;;;;;5032819;28;20068;-70
2021/04/03 08:21:49;;;;;;;25.50;15.85;;;;;;;;;;5031949;28;20017;-72
2021/04/03 08:24:16;;;;;;;28.85;16.65;;;;;;;;;;5032181;28;20481;-70
2021/04/03 08:26:43;;;;;;;25.95;16.23;;;;;;;;;;5031725;28;20060;-68
2021/04/03 08:29:19;;;;;;;26.30;16.40;;;;;;;;;;5045109;28;20022;-64
2021/04/03 08:31:51;;;;;;;28.10;16.67;;;;;;;;;;5031636;28;20140;-67
2021/04/03 08:34:17;;;;;;;27.90;16.30;;;;;;;;;;5032372;28;20024;-68
2021/04/03 08:36:45;;;;;;;29.15;16.13;;;;;;;;;;5032491;28;20370;-62
2021/04/03 08:39:12;;;;;;;24.65;15.68;;;;;;;;;;5032380;28;20025;-64
2021/04/03 08:41:39;;;;;;;22.80;14.70;;;;;;;;;;5032133;28;20037;-69
2021/04/03 08:44:16;;;;;;;25.60;15.30;;;;;;;;;;5031980;28;20029;-69
2021/04/03 08:46:45;;;;;;;24.75;15.73;;;;;;;;;;5030140;28;20033;-66
2021/04/03 08:49:11;;;;;;;24.35;15.00;;;;;;;;;;5030437;28;20017;-70
2021/04/03 08:51:38;;;;;;;23.70;15.43;;;;;;;;;;5028709;28;20046;-68
2021/04/03 08:54:04;;;;;;;26.65;16.60;;;;;;;;;;5027421;28;20072;-63
2021/04/03 08:56:35;;;;;;;23.33;14.95;;;;;;;;;;5025951;28;20098;-63
2021/04/03 08:59:03;;;;;;;23.88;14.98;;;;;;;;;;5033939;28;20032;-69
2021/04/03 09:01:30;;;;;;;24.48;14.82;;;;;;;;;;5028020;28;20025;-70
2021/04/03 09:04:02;;;;;;;24.02;14.98;;;;;;;;;;5026286;28;20476;-64
2021/04/03 09:07:00;;;;;;;22.52;15.10;;;;;;;;;;5022913;28;20022;-63
2021/04/03 09:09:28;;;;;;;22.13;14.43;;;;;;;;;;5003234;28;20547;-69
2021/04/03 09:12:01;;;;;;;20.20;13.60;;;;;;;;;;5005985;28;20087;-69
2021/04/03 09:14:31;;;;;;;23.65;14.18;;;;;;;;;;5005599;28;20057;-67
2021/04/03 09:16:58;;;;;;;22.90;14.40;;;;;;;;;;5002772;28;20042;-63
2021/04/03 09:19:28;;;;;;;21.17;13.80;;;;;;;;;;5005838;28;20041;-68
2021/04/03 09:21:55;;;;;;;28.80;14.15;;;;;;;;;;5006362;28;20121;-69
2021/04/03 09:24:40;;;;;;;24.02;13.98;;;;;;;;;;5007776;28;20045;-69
2021/04/03 09:27:10;;;;;;;21.50;13.88;;;;;;;;;;5008887;28;20460;-63
2021/04/03 09:29:36;;;;;;;20.95;13.63;;;;;;;;;;5009686;28;20581;-65
2021/04/03 09:32:09;;;;;;;21.00;12.23;;;;;;;;;;5009299;28;20041;-69
2021/04/03 09:34:36;;;;;;;19.98;12.70;;;;;;;;;;5008744;28;20038;-69
2021/04/03 09:37:15;;;;;;;19.52;13.25;;;;;;;;;;5009585;28;20088;-67
2021/04/03 09:39:42;;;;;;;26.55;13.93;;;;;;;;;;5009019;28;20080;-62
2021/04/03 09:42:11;;;;;;;20.00;12.85;;;;;;;;;;5009107;28;20029;-69
2021/04/03 09:44:38;;;;;;;22.80;13.85;;;;;;;;;;5004194;28;20471;-66
2021/04/03 09:47:04;;;;;;;22.73;13.73;;;;;;;;;;5011745;28;20102;-70
2021/04/03 09:49:30;;;;;;;21.77;13.40;;;;;;;;;;5011827;28;20054;-72
2021/04/03 09:51:59;;;;;;;22.65;13.45;;;;;;;;;;5011820;28;20072;-66
2021/04/03 09:54:25;;;;;;;22.67;13.55;;;;;;;;;;5011530;28;20022;-65
2021/04/03 09:56:51;;;;;;;19.55;12.98;;;;;;;;;;5020924;28;20426;-68
2021/04/03 09:59:18;;;;;;;19.33;11.90;;;;;;;;;;5029874;28;20108;-67
2021/04/03 10:01:44;;;;;;;19.15;12.45;;;;;;;;;;5030755;28;20078;-68
2021/04/03 10:04:10;;;;;;;20.73;12.68;;;;;;;;;;5028972;28;20060;-66
2021/04/03 10:06:36;;;;;;;25.75;13.93;;;;;;;;;;5028430;28;20046;-62
2021/04/03 10:09:02;;;;;;;20.73;13.07;;;;;;;;;;5030571;28;20018;-67
2021/04/03 10:11:28;;;;;;;21.52;12.30;;;;;;;;;;5030879;28;20108;-67
2021/04/03 10:13:55;;;;;;;18.60;11.77;;;;;;;;;;5030538;28;20021;-66
2021/04/03 10:16:21;;;;;;;16.55;10.73;;;;;;;;;;5030302;28;20037;-63
2021/04/03 10:18:47;;;;;;;15.77;10.20;;;;;;;;;;5030698;28;20116;-62
2021/04/03 10:21:13;;;;;;;16.02;8.85;;;;;;;;;;5028387;28;20032;-66
2021/04/03 10:23:40;;;;;;;13.75;9.75;;;;;;;;;;5029028;28;20055;-70
2021/04/03 10:26:06;;;;;;;14.93;9.60;;;;;;;;;;5029678;28;20113;-67
2021/04/03 10:28:32;;;;;;;14.13;9.60;;;;;;;;;;5029327;28;20064;-69
2021/04/03 10:30:58;;;;;;;15.35;10.20;;;;;;;;;;5030036;28;20108;-66
2021/04/03 10:33:24;;;;;;;14.70;10.52;;;;;;;;;;5029560;28;20049;-70
2021/04/03 10:35:50;;;;;;;15.52;10.05;;;;;;;;;;5030520;28;20029;-70
2021/04/03 10:38:16;;;;;;;16.25;10.77;;;;;;;;;;5030007;28;20025;-66
2021/04/03 10:40:42;;;;;;;16.50;11.23;;;;;;;;;;5030348;28;20104;-69
2021/04/03 10:43:08;;;;;;;15.73;10.35;;;;;;;;;;5029968;28;20028;-64
2021/04/03 10:45:34;;;;;;;17.38;11.25;;;;;;;;;;5028753;28;20096;-61
2021/04/03 10:48:00;;;;;;;16.52;10.40;;;;;;;;;;5029393;28;20033;-63
2021/04/03 10:50:26;;;;;;;15.77;10.07;;;;;;;;;;5029392;28;20033;-67
2021/04/03 10:52:52;;;;;;;16.88;11.70;;;;;;;;;;5029883;28;20064;-62
2021/04/03 10:55:18;;;;;;;16.80;11.07;;;;;;;;;;5030761;28;20040;-66
2021/04/03 10:57:45;;;;;;;12.68;7.70;;;;;;;;;;5030963;28;20478;-66
2021/04/03 11:00:11;;;;;;;17.15;10.23;;;;;;;;;;5029969;28;20059;-66
2021/04/03 11:02:37;;;;;;;18.40;11.50;;;;;;;;;;5029979;28;20013;-69
2021/04/03 11:05:03;;;;;;;21.38;12.35;;;;;;;;;;5029435;28;20059;-66
2021/04/03 11:07:29;;;;;;;16.50;10.30;;;;;;;;;;5030179;28;20021;-63
2021/04/03 11:09:55;;;;;;;19.50;11.68;;;;;;;;;;5029719;28;20093;-64
2021/04/03 11:12:21;;;;;;;14.68;10.10;;;;;;;;;;5029856;28;20022;-69
2021/04/03 11:14:47;;;;;;;10.80;7.47;;;;;;;;;;5026774;28;20036;-67
2021/04/03 11:17:13;;;;;;;17.23;10.15;;;;;;;;;;5030050;28;20022;-64
2021/04/03 11:19:40;;;;;;;14.52;8.57;;;;;;;;;;5027119;28;20061;-67
2021/04/03 11:22:06;;;;;;;12.63;8.80;;;;;;;;;;5021062;28;20055;-68
2021/04/03 11:24:34;;;;;;;14.75;8.00;;;;;;;;;;5029994;28;20076;-65
2021/04/03 11:27:00;;;;;;;12.68;8.95;;;;;;;;;;5030620;28;20129;-70
2021/04/03 11:29:26;;;;;;;15.32;9.80;;;;;;;;;;5029960;28;20480;-68
2021/04/03 11:31:53;;;;;;;16.63;10.32;;;;;;;;;;5031547;28;20052;-69
2021/04/03 11:34:19;;;;;;;14.35;8.90;;;;;;;;;;5026054;28;20518;-70
2021/04/03 11:36:45;;;;;;;14.65;8.50;;;;;;;;;;5033090;28;20033;-65
2021/04/03 11:39:11;;;;;;;14.07;8.30;;;;;;;;;;5033410;28;20469;-70
2021/04/03 11:41:37;;;;;;;13.60;8.57;;;;;;;;;;5033987;28;20029;-70
2021/04/03 11:44:04;;;;;;;18.45;8.45;;;;;;;;;;5033703;28;20029;-69
2021/04/03 11:46:30;;;;;;;14.20;8.90;;;;;;;;;;5029509;28;20054;-71
2021/04/03 11:48:56;;;;;;;15.43;9.05;;;;;;;;;;5022376;28;20080;-64
2021/04/03 11:51:22;;;;;;;16.58;9.45;;;;;;;;;;5026915;28;20091;-65
2021/04/03 11:53:49;;;;;;;18.90;10.18;;;;;;;;;;5013353;28;20061;-66
2021/04/03 11:56:16;;;;;;;17.95;10.20;;;;;;;;;;5014432;28;20231;-69
2021/04/03 11:58:42;;;;;;;16.45;10.07;;;;;;;;;;5013880;28;20042;-69
2021/04/03 12:01:08;;;;;;;17.20;10.43;;;;;;;;;;5012395;28;20030;-69
2021/04/03 12:03:34;;;;;;;17.25;8.95;;;;;;;;;;5016553;28;20430;-69
2021/04/03 12:06:00;;;;;;;17.38;10.15;;;;;;;;;;5016342;28;20220;-70
2021/04/03 12:08:26;;;;;;;16.00;9.35;;;;;;;;;;5028767;28;20021;-69
2021/04/03 12:10:52;;;;;;;16.40;8.88;;;;;;;;;;5032414;28;20523;-69
2021/04/03 12:13:19;;;;;;;12.55;8.10;;;;;;;;;;5033468;28;20043;-70
2021/04/03 12:15:45;;;;;;;14.45;9.10;;;;;;;;;;5038303;28;20045;-64
2021/04/03 12:18:11;;;;;;;17.83;10.77;;;;;;;;;;5033002;28;20347;-66
2021/04/03 12:20:37;;;;;;;19.98;11.23;;;;;;;;;;5033004;28;20469;-70
2021/04/03 12:23:03;;;;;;;19.10;11.93;;;;;;;;;;5033527;28;20025;-65
2021/04/03 12:25:29;;;;;;;19.45;12.38;;;;;;;;;;5032900;28;20038;-68
2021/04/03 12:27:55;;;;;;;22.98;12.80;;;;;;;;;;5033301;28;20026;-71
2021/04/03 12:30:22;;;;;;;18.20;9.75;;;;;;;;;;5032923;28;20034;-67
2021/04/03 12:32:48;;;;;;;14.93;8.82;;;;;;;;;;5031940;28;20037;-71
2021/04/03 12:35:14;;;;;;;13.68;9.10;;;;;;;;;;5032798;28;20021;-70
2021/04/03 12:37:40;;;;;;;14.98;8.43;;;;;;;;;;5032564;28;20026;-70
2021/04/03 12:40:07;;;;;;;12.18;7.57;;;;;;;;;;5032173;28;20033;-70
2021/04/03 12:42:33;;;;;;;12.85;8.52;;;;;;;;;;5032293;28;20059;-67
2021/04/03 12:45:00;;;;;;;13.98;8.02;;;;;;;;;;5032274;28;20050;-68
2021/04/03 12:47:26;;;;;;;14.30;8.52;;;;;;;;;;5032070;28;20033;-64
2021/04/03 12:49:52;;;;;;;12.55;8.75;;;;;;;;;;5031504;28;20037;-68
2021/04/03 12:52:18;;;;;;;13.90;8.57;;;;;;;;;;5031076;28;20075;-63
2021/04/03 12:54:44;;;;;;;14.18;8.27;;;;;;;;;;5031380;28;20071;-70
2021/04/03 12:57:10;;;;;;;14.77;7.20;;;;;;;;;;5032327;28;20104;-68
2021/04/03 12:59:36;;;;;;;13.32;8.77;;;;;;;;;;5031864;28;20503;-69
2021/04/03 13:02:03;;;;;;;13.43;8.77;;;;;;;;;;5031274;28;20064;-69
2021/04/03 13:04:29;;;;;;;12.50;9.02;;;;;;;;;;5032581;28;20107;-69
2021/04/03 13:06:55;;;;;;;16.10;9.48;;;;;;;;;;5032567;28;20057;-68
2021/04/03 13:09:21;;;;;;;13.55;9.75;;;;;;;;;;5032319;28;20017;-66
2021/04/03 13:11:48;;;;;;;10.93;7.60;;;;;;;;;;5026623;28;20044;-69
2021/04/03 13:14:14;;;;;;;16.02;10.65;;;;;;;;;;5027235;28;20104;-62
2021/04/03 13:16:40;;;;;;;16.13;10.23;;;;;;;;;;5031290;28;20017;-62
2021/04/03 13:19:07;;;;;;;17.90;9.93;;;;;;;;;;5031037;28;20424;-68
2021/04/03 13:21:33;;;;;;;17.15;9.70;;;;;;;;;;5030723;28;20014;-69
2021/04/03 13:23:59;;;;;;;15.88;9.40;;;;;;;;;;5028249;28;20096;-64
2021/04/03 13:26:25;;;;;;;14.07;9.02;;;;;;;;;;5028148;28;20032;-67
2021/04/03 13:28:51;;;;;;;12.40;9.40;;;;;;;;;;5029854;28;20029;-70
2021/04/03 13:31:17;;;;;;;14.45;10.05;;;;;;;;;;5029128;28;20406;-70
2021/04/03 13:33:44;;;;;;;19.08;12.10;;;;;;;;;;5029144;28;20025;-70
2021/04/03 13:36:10;;;;;;;14.57;9.52;;;;;;;;;;5029959;28;20029;-70
2021/04/03 13:38:36;;;;;;;16.17;10.15;;;;;;;;;;5029246;28;20032;-67
2021/04/03 13:41:02;;;;;;;11.75;8.57;;;;;;;;;;5029369;28;20033;-62
2021/04/03 13:43:28;;;;;;;14.93;9.90;;;;;;;;;;5029290;28;20033;-70
2021/04/03 13:45:55;;;;;;;13.98;9.63;;;;;;;;;;5029347;28;20053;-69
2021/04/03 13:48:21;;;;;;;19.98;10.65;;;;;;;;;;5031073;28;20112;-66
2021/04/03 13:50:47;;;;;;;18.95;11.52;;;;;;;;;;5028787;28;20033;-67
2021/04/03 13:53:13;;;;;;;15.88;10.02;;;;;;;;;;5025529;28;20025;-68
2021/04/03 13:55:39;;;;;;;15.60;10.38;;;;;;;;;;5023752;28;20031;-67
2021/04/03 13:58:05;;;;;;;16.50;10.65;;;;;;;;;;5024433;28;20095;-67
2021/04/03 14:00:31;;;;;;;20.95;11.70;;;;;;;;;;5018491;28;20444;-63
2021/04/03 14:02:58;;;;;;;17.27;11.93;;;;;;;;;;5019334;28;20109;-67
2021/04/03 14:05:24;;;;;;;17.33;11.27;;;;;;;;;;5020019;28;20029;-63
2021/04/03 14:07:50;;;;;;;19.02;11.50;;;;;;;;;;5019688;28;20032;-70
2021/04/03 14:10:16;;;;;;;16.38;10.75;;;;;;;;;;5017612;28;20025;-69
2021/04/03 14:12:43;;;;;;;18.30;11.00;;;;;;;;;;5018671;28;20021;-67
2021/04/03 14:15:09;;;;;;;17.63;11.55;;;;;;;;;;5017667;28;20026;-65
2021/04/03 14:17:36;;;;;;;16.45;10.75;;;;;;;;;;5017613;28;20034;-64
2021/04/03 14:20:02;;;;;;;18.77;11.00;;;;;;;;;;5017063;28;20040;-69
2021/04/03 14:22:28;;;;;;;17.85;11.05;;;;;;;;;;5015845;28;20072;-69